sensor_id;sensor_type;location;lat;lon;timestamp;P1;durP1;ratioP1;P2;durP2;ratioP2
44816;SDS011;30529;53.570;9.964;2022-09-13T00:00:37;3.57;;;2.50;;
44816;SDS011;30529;53.570;9.964;2022-09-13T00:03:06;3.10;;;2.27;;
44816;SDS011;30529;53.570;9.964;2022-09-13T00:05:34;3.43;;;2.87;;
44816;SDS011;30529;53.570;9.964;2022-09-13T00:08:02;5.60;;;2.40;;
44816;SDS011;30529;53.570;9.964;2022-09-13T00:10:28;3.30;;;2.37;;
44816;SDS011;30529;53.570;9.964;2022-09-13T00:12:55;5.57;;;2.40;;
44816;SDS011;30529;53.570;9.964;2022-09-13T00:15:21;4.37;;;2.43;;
44816;SDS011;30529;53.570;9.964;2022-09-13T00:17:47;2.97;;;2.17;;
44816;SDS011;30529;53.570;9.964;2022-09-13T00:20:13;3.83;;;2.20;;
44816;SDS011;30529;53.570;9.964;2022-09-13T00:22:39;4.00;;;1.93;;
44816;SDS011;30529;53.570;9.964;2022-09-13T00:25:06;3.77;;;2.20;;
44816;SDS011;30529;53.570;9.964;2022-09-13T00:27:33;2.87;;;2.60;;
44816;SDS011;30529;53.570;9.964;2022-09-13T00:30:00;2.90;;;2.40;;
44816;SDS011;30529;53.570;9.964;2022-09-13T00:32:28;4.40;;;2.80;;
44816;SDS011;30529;53.570;9.964;2022-09-13T00:34:54;4.50;;;2.73;;
44816;SDS011;30529;53.570;9.964;2022-09-13T00:37:20;6.37;;;3.07;;
44816;SDS011;30529;53.570;9.964;2022-09-13T00:39:46;3.20;;;2.53;;
44816;SDS011;30529;53.570;9.964;2022-09-13T00:42:12;8.10;;;3.57;;
44816;SDS011;30529;53.570;9.964;2022-09-13T00:44:52;4.57;;;2.83;;
44816;SDS011;30529;53.570;9.964;2022-09-13T00:47:28;4.37;;;2.83;;
44816;SDS011;30529;53.570;9.964;2022-09-13T00:53:15;4.83;;;3.40;;
44816;SDS011;30529;53.570;9.964;2022-09-13T00:58:21;9.37;;;3.40;;
44816;SDS011;30529;53.570;9.964;2022-09-13T01:00:51;4.20;;;3.37;;
44816;SDS011;30529;53.570;9.964;2022-09-13T01:03:20;8.67;;;3.47;;
44816;SDS011;30529;53.570;9.964;2022-09-13T01:05:51;6.07;;;4.13;;
44816;SDS011;30529;53.570;9.964;2022-09-13T01:08:20;5.80;;;3.90;;
44816;SDS011;30529;53.570;9.964;2022-09-13T01:10:47;3.80;;;3.20;;
44816;SDS011;30529;53.570;9.964;2022-09-13T01:13:17;7.17;;;4.27;;
44816;SDS011;30529;53.570;9.964;2022-09-13T01:15:47;7.03;;;3.90;;
44816;SDS011;30529;53.570;9.964;2022-09-13T01:18:14;6.17;;;3.93;;
44816;SDS011;30529;53.570;9.964;2022-09-13T01:26:19;5.40;;;4.13;;
44816;SDS011;30529;53.570;9.964;2022-09-13T01:28:57;5.53;;;3.83;;
44816;SDS011;30529;53.570;9.964;2022-09-13T01:31:44;6.70;;;4.30;;
44816;SDS011;30529;53.570;9.964;2022-09-13T01:34:36;5.30;;;3.90;;
44816;SDS011;30529;53.570;9.964;2022-09-13T01:40:01;6.60;;;3.90;;
44816;SDS011;30529;53.570;9.964;2022-09-13T01:48:09;4.70;;;4.10;;
44816;SDS011;30529;53.570;9.964;2022-09-13T01:58:53;8.83;;;4.40;;
44816;SDS011;30529;53.570;9.964;2022-09-13T02:04:02;7.07;;;4.93;;
44816;SDS011;30529;53.570;9.964;2022-09-13T02:06:38;8.50;;;4.70;;
44816;SDS011;30529;53.570;9.964;2022-09-13T02:09:25;8.07;;;4.90;;
44816;SDS011;30529;53.570;9.964;2022-09-13T02:12:00;4.83;;;4.00;;
44816;SDS011;30529;53.570;9.964;2022-09-13T02:14:36;8.63;;;4.70;;
44816;SDS011;30529;53.570;9.964;2022-09-13T02:17:05;7.27;;;4.30;;
44816;SDS011;30529;53.570;9.964;2022-09-13T02:19:36;6.30;;;4.43;;
44816;SDS011;30529;53.570;9.964;2022-09-13T02:22:06;6.13;;;4.40;;
44816;SDS011;30529;53.570;9.964;2022-09-13T02:24:43;5.63;;;4.17;;
44816;SDS011;30529;53.570;9.964;2022-09-13T02:27:14;7.43;;;4.50;;
44816;SDS011;30529;53.570;9.964;2022-09-13T02:29:46;7.10;;;4.13;;
44816;SDS011;30529;53.570;9.964;2022-09-13T02:32:21;6.93;;;4.40;;
44816;SDS011;30529;53.570;9.964;2022-09-13T02:35:00;8.20;;;4.90;;
44816;SDS011;30529;53.570;9.964;2022-09-13T02:37:27;6.70;;;4.63;;
44816;SDS011;30529;53.570;9.964;2022-09-13T02:39:59;7.77;;;4.67;;
44816;SDS011;30529;53.570;9.964;2022-09-13T02:42:40;8.93;;;4.63;;
44816;SDS011;30529;53.570;9.964;2022-09-13T02:45:09;5.67;;;4.53;;
44816;SDS011;30529;53.570;9.964;2022-09-13T02:56:15;7.93;;;4.20;;
44816;SDS011;30529;53.570;9.964;2022-09-13T02:58:52;6.97;;;5.10;;
44816;SDS011;30529;53.570;9.964;2022-09-13T03:01:27;5.90;;;4.70;;
44816;SDS011;30529;53.570;9.964;2022-09-13T03:03:53;7.90;;;5.07;;
44816;SDS011;30529;53.570;9.964;2022-09-13T03:06:23;6.87;;;5.27;;
44816;SDS011;30529;53.570;9.964;2022-09-13T03:08:54;6.77;;;4.77;;
44816;SDS011;30529;53.570;9.964;2022-09-13T03:11:41;9.80;;;5.20;;
44816;SDS011;30529;53.570;9.964;2022-09-13T03:14:21;8.40;;;5.70;;
44816;SDS011;30529;53.570;9.964;2022-09-13T03:31:09;8.27;;;6.10;;
44816;SDS011;30529;53.570;9.964;2022-09-13T03:33:46;8.27;;;6.40;;
44816;SDS011;30529;53.570;9.964;2022-09-13T03:36:20;11.77;;;7.37;;
44816;SDS011;30529;53.570;9.964;2022-09-13T03:39:01;10.30;;;6.97;;
44816;SDS011;30529;53.570;9.964;2022-09-13T03:41:37;9.93;;;7.20;;
44816;SDS011;30529;53.570;9.964;2022-09-13T03:44:10;12.33;;;7.23;;
44816;SDS011;30529;53.570;9.964;2022-09-13T03:46:40;11.53;;;7.27;;
44816;SDS011;30529;53.570;9.964;2022-09-13T03:49:09;9.27;;;6.60;;
44816;SDS011;30529;53.570;9.964;2022-09-13T03:51:42;11.90;;;7.80;;
44816;SDS011;30529;53.570;9.964;2022-09-13T03:54:15;9.10;;;7.63;;
44816;SDS011;30529;53.570;9.964;2022-09-13T03:59:38;12.40;;;7.93;;
44816;SDS011;30529;53.570;9.964;2022-09-13T04:02:17;12.63;;;9.57;;
44816;SDS011;30529;53.570;9.964;2022-09-13T04:04:44;10.60;;;8.77;;
44816;SDS011;30529;53.570;9.964;2022-09-13T04:07:12;10.93;;;8.70;;
44816;SDS011;30529;53.570;9.964;2022-09-13T04:09:40;14.83;;;9.33;;
44816;SDS011;30529;53.570;9.964;2022-09-13T04:12:06;12.73;;;9.30;;
44816;SDS011;30529;53.570;9.964;2022-09-13T04:14:34;13.47;;;9.53;;
44816;SDS011;30529;53.570;9.964;2022-09-13T04:17:00;13.33;;;10.17;;
44816;SDS011;30529;53.570;9.964;2022-09-13T04:19:27;13.57;;;11.10;;
44816;SDS011;30529;53.570;9.964;2022-09-13T04:21:55;13.47;;;10.13;;
44816;SDS011;30529;53.570;9.964;2022-09-13T04:24:25;13.87;;;10.37;;
44816;SDS011;30529;53.570;9.964;2022-09-13T04:26:53;15.10;;;10.10;;
44816;SDS011;30529;53.570;9.964;2022-09-13T04:29:20;15.03;;;10.40;;
44816;SDS011;30529;53.570;9.964;2022-09-13T04:31:48;12.60;;;9.97;;
44816;SDS011;30529;53.570;9.964;2022-09-13T04:34:15;14.27;;;10.17;;
44816;SDS011;30529;53.570;9.964;2022-09-13T04:36:43;16.83;;;10.93;;
44816;SDS011;30529;53.570;9.964;2022-09-13T04:39:10;17.27;;;10.77;;
44816;SDS011;30529;53.570;9.964;2022-09-13T04:41:39;15.43;;;10.03;;
44816;SDS011;30529;53.570;9.964;2022-09-13T04:44:05;14.50;;;10.40;;
44816;SDS011;30529;53.570;9.964;2022-09-13T04:46:31;15.73;;;10.23;;
44816;SDS011;30529;53.570;9.964;2022-09-13T04:48:58;15.67;;;10.97;;
44816;SDS011;30529;53.570;9.964;2022-09-13T04:51:24;18.10;;;11.93;;
44816;SDS011;30529;53.570;9.964;2022-09-13T04:53:51;22.37;;;11.10;;
44816;SDS011;30529;53.570;9.964;2022-09-13T04:56:18;15.47;;;10.43;;
44816;SDS011;30529;53.570;9.964;2022-09-13T04:58:45;19.87;;;12.40;;
44816;SDS011;30529;53.570;9.964;2022-09-13T05:01:11;18.73;;;11.63;;
44816;SDS011;30529;53.570;9.964;2022-09-13T05:03:37;16.77;;;10.63;;
44816;SDS011;30529;53.570;9.964;2022-09-13T05:06:04;16.53;;;11.00;;
44816;SDS011;30529;53.570;9.964;2022-09-13T05:08:31;18.73;;;13.23;;
44816;SDS011;30529;53.570;9.964;2022-09-13T05:10:58;16.20;;;11.60;;
44816;SDS011;30529;53.570;9.964;2022-09-13T05:13:24;18.80;;;13.80;;
44816;SDS011;30529;53.570;9.964;2022-09-13T05:16:01;17.13;;;12.63;;
44816;SDS011;30529;53.570;9.964;2022-09-13T05:18:31;17.20;;;13.30;;
44816;SDS011;30529;53.570;9.964;2022-09-13T05:20:59;19.73;;;13.90;;
44816;SDS011;30529;53.570;9.964;2022-09-13T05:23:26;17.77;;;12.30;;
44816;SDS011;30529;53.570;9.964;2022-09-13T05:28:25;18.80;;;13.30;;
44816;SDS011;30529;53.570;9.964;2022-09-13T05:30:54;18.13;;;12.50;;
44816;SDS011;30529;53.570;9.964;2022-09-13T05:33:39;19.77;;;13.30;;
44816;SDS011;30529;53.570;9.964;2022-09-13T05:36:06;22.13;;;14.10;;
44816;SDS011;30529;53.570;9.964;2022-09-13T05:38:32;15.43;;;12.30;;
44816;SDS011;30529;53.570;9.964;2022-09-13T05:40:59;17.03;;;12.83;;
44816;SDS011;30529;53.570;9.964;2022-09-13T05:43:27;21.37;;;14.17;;
44816;SDS011;30529;53.570;9.964;2022-09-13T05:46:01;19.17;;;14.40;;
44816;SDS011;30529;53.570;9.964;2022-09-13T05:48:29;21.60;;;14.50;;
44816;SDS011;30529;53.570;9.964;2022-09-13T05:51:02;18.50;;;13.63;;
44816;SDS011;30529;53.570;9.964;2022-09-13T05:53:30;18.37;;;13.70;;
44816;SDS011;30529;53.570;9.964;2022-09-13T05:55:57;19.87;;;14.37;;
44816;SDS011;30529;53.570;9.964;2022-09-13T05:58:23;19.47;;;13.07;;
44816;SDS011;30529;53.570;9.964;2022-09-13T06:00:54;22.27;;;13.50;;
44816;SDS011;30529;53.570;9.964;2022-09-13T06:03:21;19.47;;;13.93;;
44816;SDS011;30529;53.570;9.964;2022-09-13T06:05:48;22.90;;;14.50;;
44816;SDS011;30529;53.570;9.964;2022-09-13T06:08:18;18.70;;;13.13;;
44816;SDS011;30529;53.570;9.964;2022-09-13T06:10:52;22.10;;;13.53;;
44816;SDS011;30529;53.570;9.964;2022-09-13T06:13:19;16.57;;;12.60;;
44816;SDS011;30529;53.570;9.964;2022-09-13T06:15:46;19.17;;;14.27;;
44816;SDS011;30529;53.570;9.964;2022-09-13T06:18:12;18.23;;;13.80;;
44816;SDS011;30529;53.570;9.964;2022-09-13T06:20:38;18.03;;;14.13;;
44816;SDS011;30529;53.570;9.964;2022-09-13T06:23:04;18.30;;;13.17;;
44816;SDS011;30529;53.570;9.964;2022-09-13T06:25:30;20.47;;;14.83;;
44816;SDS011;30529;53.570;9.964;2022-09-13T06:27:57;23.13;;;15.00;;
44816;SDS011;30529;53.570;9.964;2022-09-13T06:30:23;18.43;;;14.03;;
44816;SDS011;30529;53.570;9.964;2022-09-13T06:32:49;18.90;;;13.50;;
44816;SDS011;30529;53.570;9.964;2022-09-13T06:35:15;18.90;;;13.77;;
44816;SDS011;30529;53.570;9.964;2022-09-13T06:37:42;19.43;;;13.90;;
44816;SDS011;30529;53.570;9.964;2022-09-13T06:40:08;19.00;;;14.13;;
44816;SDS011;30529;53.570;9.964;2022-09-13T06:42:35;19.43;;;13.67;;
44816;SDS011;30529;53.570;9.964;2022-09-13T06:45:02;19.87;;;13.63;;
44816;SDS011;30529;53.570;9.964;2022-09-13T06:47:28;20.47;;;14.23;;
44816;SDS011;30529;53.570;9.964;2022-09-13T06:49:55;19.40;;;14.47;;
44816;SDS011;30529;53.570;9.964;2022-09-13T06:52:22;21.23;;;14.03;;
44816;SDS011;30529;53.570;9.964;2022-09-13T06:54:48;17.93;;;13.53;;
44816;SDS011;30529;53.570;9.964;2022-09-13T06:57:15;16.90;;;13.13;;
44816;SDS011;30529;53.570;9.964;2022-09-13T06:59:41;19.60;;;13.57;;
44816;SDS011;30529;53.570;9.964;2022-09-13T07:02:08;18.33;;;13.40;;
44816;SDS011;30529;53.570;9.964;2022-09-13T07:04:35;16.53;;;13.03;;
44816;SDS011;30529;53.570;9.964;2022-09-13T07:07:01;17.50;;;12.47;;
44816;SDS011;30529;53.570;9.964;2022-09-13T07:09:27;18.63;;;12.47;;
44816;SDS011;30529;53.570;9.964;2022-09-13T07:11:54;19.27;;;12.13;;
44816;SDS011;30529;53.570;9.964;2022-09-13T07:14:24;19.33;;;12.20;;
44816;SDS011;30529;53.570;9.964;2022-09-13T07:16:51;19.47;;;12.97;;
44816;SDS011;30529;53.570;9.964;2022-09-13T07:19:21;15.93;;;12.27;;
44816;SDS011;30529;53.570;9.964;2022-09-13T07:21:50;14.73;;;11.93;;
44816;SDS011;30529;53.570;9.964;2022-09-13T07:24:18;16.67;;;11.50;;
44816;SDS011;30529;53.570;9.964;2022-09-13T07:26:45;15.07;;;12.13;;
44816;SDS011;30529;53.570;9.964;2022-09-13T07:29:14;15.27;;;11.43;;
44816;SDS011;30529;53.570;9.964;2022-09-13T07:31:44;15.37;;;11.10;;
44816;SDS011;30529;53.570;9.964;2022-09-13T07:34:17;17.57;;;10.87;;
44816;SDS011;30529;53.570;9.964;2022-09-13T07:36:45;15.67;;;10.97;;
44816;SDS011;30529;53.570;9.964;2022-09-13T07:39:13;17.97;;;10.53;;
44816;SDS011;30529;53.570;9.964;2022-09-13T07:41:39;13.23;;;9.47;;
44816;SDS011;30529;53.570;9.964;2022-09-13T07:44:08;13.80;;;8.77;;
44816;SDS011;30529;53.570;9.964;2022-09-13T07:46:35;11.60;;;9.10;;
44816;SDS011;30529;53.570;9.964;2022-09-13T07:49:04;16.53;;;10.00;;
44816;SDS011;30529;53.570;9.964;2022-09-13T07:51:31;13.97;;;8.87;;
44816;SDS011;30529;53.570;9.964;2022-09-13T07:54:00;11.80;;;8.90;;
44816;SDS011;30529;53.570;9.964;2022-09-13T07:56:35;10.97;;;8.23;;
44816;SDS011;30529;53.570;9.964;2022-09-13T07:59:03;14.63;;;8.70;;
44816;SDS011;30529;53.570;9.964;2022-09-13T08:01:33;12.70;;;7.93;;
44816;SDS011;30529;53.570;9.964;2022-09-13T08:04:03;12.90;;;7.50;;
44816;SDS011;30529;53.570;9.964;2022-09-13T08:06:32;10.67;;;7.63;;
44816;SDS011;30529;53.570;9.964;2022-09-13T08:09:00;11.13;;;6.47;;
44816;SDS011;30529;53.570;9.964;2022-09-13T08:11:30;17.63;;;7.17;;
44816;SDS011;30529;53.570;9.964;2022-09-13T08:13:58;11.90;;;5.57;;
44816;SDS011;30529;53.570;9.964;2022-09-13T08:16:26;9.33;;;4.67;;
44816;SDS011;30529;53.570;9.964;2022-09-13T08:18:54;8.03;;;3.97;;
44816;SDS011;30529;53.570;9.964;2022-09-13T08:21:22;8.23;;;3.27;;
44816;SDS011;30529;53.570;9.964;2022-09-13T08:23:52;9.67;;;3.57;;
44816;SDS011;30529;53.570;9.964;2022-09-13T08:26:20;9.10;;;2.90;;
44816;SDS011;30529;53.570;9.964;2022-09-13T08:28:47;10.47;;;2.77;;
44816;SDS011;30529;53.570;9.964;2022-09-13T08:31:13;9.27;;;2.67;;
44816;SDS011;30529;53.570;9.964;2022-09-13T08:33:46;10.57;;;2.53;;
44816;SDS011;30529;53.570;9.964;2022-09-13T08:36:15;9.53;;;2.67;;
44816;SDS011;30529;53.570;9.964;2022-09-13T08:38:46;7.63;;;2.50;;
44816;SDS011;30529;53.570;9.964;2022-09-13T08:49:49;4.57;;;1.30;;
44816;SDS011;30529;53.570;9.964;2022-09-13T08:52:29;8.23;;;1.53;;
44816;SDS011;30529;53.570;9.964;2022-09-13T08:54:58;5.80;;;1.57;;
44816;SDS011;30529;53.570;9.964;2022-09-13T08:57:35;6.53;;;1.53;;
44816;SDS011;30529;53.570;9.964;2022-09-13T09:00:20;4.17;;;1.57;;
44816;SDS011;30529;53.570;9.964;2022-09-13T09:03:28;6.30;;;1.83;;
44816;SDS011;30529;53.570;9.964;2022-09-13T09:06:27;7.83;;;1.97;;
44816;SDS011;30529;53.570;9.964;2022-09-13T09:08:57;3.83;;;1.50;;
44816;SDS011;30529;53.570;9.964;2022-09-13T09:11:44;6.50;;;1.50;;
44816;SDS011;30529;53.570;9.964;2022-09-13T09:17:06;6.63;;;1.63;;
44816;SDS011;30529;53.570;9.964;2022-09-13T09:19:39;7.70;;;1.40;;
44816;SDS011;30529;53.570;9.964;2022-09-13T09:22:15;4.97;;;1.30;;
44816;SDS011;30529;53.570;9.964;2022-09-13T09:24:44;6.37;;;1.30;;
44816;SDS011;30529;53.570;9.964;2022-09-13T09:27:15;4.53;;;1.20;;
44816;SDS011;30529;53.570;9.964;2022-09-13T09:29:48;7.53;;;1.70;;
44816;SDS011;30529;53.570;9.964;2022-09-13T09:38:18;3.87;;;0.97;;
44816;SDS011;30529;53.570;9.964;2022-09-13T09:41:23;5.90;;;1.07;;
44816;SDS011;30529;53.570;9.964;2022-09-13T09:46:54;3.00;;;1.10;;
44816;SDS011;30529;53.570;9.964;2022-09-13T09:49:50;4.70;;;1.03;;
44816;SDS011;30529;53.570;9.964;2022-09-13T09:52:40;5.37;;;1.23;;
44816;SDS011;30529;53.570;9.964;2022-09-13T09:55:29;7.67;;;1.47;;
44816;SDS011;30529;53.570;9.964;2022-09-13T09:58:11;6.80;;;1.33;;
44816;SDS011;30529;53.570;9.964;2022-09-13T10:00:54;6.13;;;1.10;;
44816;SDS011;30529;53.570;9.964;2022-09-13T10:03:27;5.37;;;1.27;;
44816;SDS011;30529;53.570;9.964;2022-09-13T10:06:03;4.13;;;1.07;;
44816;SDS011;30529;53.570;9.964;2022-09-13T10:08:32;3.20;;;1.10;;
44816;SDS011;30529;53.570;9.964;2022-09-13T10:11:01;4.73;;;1.47;;
44816;SDS011;30529;53.570;9.964;2022-09-13T10:13:29;6.83;;;1.60;;
44816;SDS011;30529;53.570;9.964;2022-09-13T10:15:56;4.53;;;1.27;;
44816;SDS011;30529;53.570;9.964;2022-09-13T10:18:31;6.97;;;1.30;;
44816;SDS011;30529;53.570;9.964;2022-09-13T10:23:45;7.50;;;1.20;;
44816;SDS011;30529;53.570;9.964;2022-09-13T10:28:55;3.27;;;1.20;;
44816;SDS011;30529;53.570;9.964;2022-09-13T10:31:41;3.03;;;1.00;;
44816;SDS011;30529;53.570;9.964;2022-09-13T10:34:30;8.63;;;1.53;;
44816;SDS011;30529;53.570;9.964;2022-09-13T10:37:02;3.63;;;0.97;;
44816;SDS011;30529;53.570;9.964;2022-09-13T10:42:21;5.23;;;1.20;;
44816;SDS011;30529;53.570;9.964;2022-09-13T10:44:54;4.30;;;1.07;;
44816;SDS011;30529;53.570;9.964;2022-09-13T10:47:44;7.00;;;1.40;;
44816;SDS011;30529;53.570;9.964;2022-09-13T10:50:26;5.20;;;1.20;;
44816;SDS011;30529;53.570;9.964;2022-09-13T10:52:57;7.10;;;1.40;;
44816;SDS011;30529;53.570;9.964;2022-09-13T10:55:26;7.60;;;1.30;;
44816;SDS011;30529;53.570;9.964;2022-09-13T11:11:35;8.57;;;1.53;;
44816;SDS011;30529;53.570;9.964;2022-09-13T11:22:53;5.33;;;1.10;;
44816;SDS011;30529;53.570;9.964;2022-09-13T11:25:28;2.57;;;1.33;;
44816;SDS011;30529;53.570;9.964;2022-09-13T11:28:25;5.90;;;1.57;;
44816;SDS011;30529;53.570;9.964;2022-09-13T11:36:41;4.53;;;0.80;;
44816;SDS011;30529;53.570;9.964;2022-09-13T11:42:22;2.87;;;1.03;;
44816;SDS011;30529;53.570;9.964;2022-09-13T11:45:24;6.90;;;1.20;;
44816;SDS011;30529;53.570;9.964;2022-09-13T11:48:08;3.40;;;0.90;;
44816;SDS011;30529;53.570;9.964;2022-09-13T11:56:00;4.17;;;1.07;;
44816;SDS011;30529;53.570;9.964;2022-09-13T12:01:12;4.40;;;1.23;;
44816;SDS011;30529;53.570;9.964;2022-09-13T12:06:21;9.00;;;1.40;;
44816;SDS011;30529;53.570;9.964;2022-09-13T12:11:50;7.60;;;1.30;;
44816;SDS011;30529;53.570;9.964;2022-09-13T12:14:29;7.60;;;1.30;;
44816;SDS011;30529;53.570;9.964;2022-09-13T12:17:18;5.50;;;1.13;;
44816;SDS011;30529;53.570;9.964;2022-09-13T12:19:47;6.17;;;1.30;;
44816;SDS011;30529;53.570;9.964;2022-09-13T12:22:19;7.43;;;1.30;;
44816;SDS011;30529;53.570;9.964;2022-09-13T12:24:54;7.17;;;1.10;;
44816;SDS011;30529;53.570;9.964;2022-09-13T12:30:20;3.80;;;1.10;;
44816;SDS011;30529;53.570;9.964;2022-09-13T12:32:48;7.10;;;1.60;;
44816;SDS011;30529;53.570;9.964;2022-09-13T12:46:02;5.47;;;1.37;;
44816;SDS011;30529;53.570;9.964;2022-09-13T12:48:39;7.03;;;1.30;;
44816;SDS011;30529;53.570;9.964;2022-09-13T12:59:33;5.40;;;1.43;;
44816;SDS011;30529;53.570;9.964;2022-09-13T13:02:25;7.30;;;1.30;;
44816;SDS011;30529;53.570;9.964;2022-09-13T13:05:01;11.07;;;1.67;;
44816;SDS011;30529;53.570;9.964;2022-09-13T13:07:51;6.20;;;1.50;;
44816;SDS011;30529;53.570;9.964;2022-09-13T13:10:33;6.93;;;1.00;;
44816;SDS011;30529;53.570;9.964;2022-09-13T13:13:21;6.47;;;1.20;;
44816;SDS011;30529;53.570;9.964;2022-09-13T13:15:58;5.83;;;1.53;;
44816;SDS011;30529;53.570;9.964;2022-09-13T13:26:49;5.73;;;1.17;;
44816;SDS011;30529;53.570;9.964;2022-09-13T13:29:30;4.87;;;0.80;;
44816;SDS011;30529;53.570;9.964;2022-09-13T13:34:42;7.17;;;1.10;;
44816;SDS011;30529;53.570;9.964;2022-09-13T13:42:12;5.77;;;1.13;;
44816;SDS011;30529;53.570;9.964;2022-09-13T14:00:19;4.90;;;1.13;;
44816;SDS011;30529;53.570;9.964;2022-09-13T14:05:28;8.57;;;1.83;;
44816;SDS011;30529;53.570;9.964;2022-09-13T14:19:43;5.43;;;1.50;;
44816;SDS011;30529;53.570;9.964;2022-09-13T14:22:19;6.60;;;1.47;;
44816;SDS011;30529;53.570;9.964;2022-09-13T14:24:48;5.43;;;1.57;;
44816;SDS011;30529;53.570;9.964;2022-09-13T14:27:20;9.97;;;1.83;;
44816;SDS011;30529;53.570;9.964;2022-09-13T14:29:52;9.63;;;1.97;;
44816;SDS011;30529;53.570;9.964;2022-09-13T14:32:25;12.03;;;1.73;;
44816;SDS011;30529;53.570;9.964;2022-09-13T14:35:04;6.03;;;2.30;;
44816;SDS011;30529;53.570;9.964;2022-09-13T14:37:46;6.33;;;1.43;;
44816;SDS011;30529;53.570;9.964;2022-09-13T14:40:17;8.07;;;1.20;;
44816;SDS011;30529;53.570;9.964;2022-09-13T14:42:53;9.00;;;1.50;;
44816;SDS011;30529;53.570;9.964;2022-09-13T14:45:28;6.83;;;1.70;;
44816;SDS011;30529;53.570;9.964;2022-09-13T14:48:04;11.47;;;2.27;;
44816;SDS011;30529;53.570;9.964;2022-09-13T14:50:39;8.07;;;1.23;;
44816;SDS011;30529;53.570;9.964;2022-09-13T14:53:17;6.73;;;1.13;;
44816;SDS011;30529;53.570;9.964;2022-09-13T14:56:06;6.73;;;1.10;;
44816;SDS011;30529;53.570;9.964;2022-09-13T14:58:38;7.47;;;1.30;;
44816;SDS011;30529;53.570;9.964;2022-09-13T15:01:11;7.87;;;1.97;;
44816;SDS011;30529;53.570;9.964;2022-09-13T15:03:41;6.60;;;1.47;;
44816;SDS011;30529;53.570;9.964;2022-09-13T15:06:18;9.53;;;1.70;;
44816;SDS011;30529;53.570;9.964;2022-09-13T15:08:54;5.67;;;1.10;;
44816;SDS011;30529;53.570;9.964;2022-09-13T15:11:37;5.83;;;1.30;;
44816;SDS011;30529;53.570;9.964;2022-09-13T15:19:35;5.43;;;1.20;;
44816;SDS011;30529;53.570;9.964;2022-09-13T15:24:49;9.70;;;1.73;;
44816;SDS011;30529;53.570;9.964;2022-09-13T15:27:19;8.13;;;1.53;;
44816;SDS011;30529;53.570;9.964;2022-09-13T15:29:48;4.47;;;1.93;;
44816;SDS011;30529;53.570;9.964;2022-09-13T15:32:20;6.77;;;1.60;;
44816;SDS011;30529;53.570;9.964;2022-09-13T15:34:54;12.00;;;1.90;;
44816;SDS011;30529;53.570;9.964;2022-09-13T15:37:57;9.17;;;1.77;;
44816;SDS011;30529;53.570;9.964;2022-09-13T15:40:44;5.20;;;1.20;;
44816;SDS011;30529;53.570;9.964;2022-09-13T15:43:12;8.97;;;1.30;;
44816;SDS011;30529;53.570;9.964;2022-09-13T15:45:38;7.47;;;1.90;;
44816;SDS011;30529;53.570;9.964;2022-09-13T15:48:05;6.17;;;1.50;;
44816;SDS011;30529;53.570;9.964;2022-09-13T15:50:31;7.07;;;1.70;;
44816;SDS011;30529;53.570;9.964;2022-09-13T15:52:58;8.77;;;1.50;;
44816;SDS011;30529;53.570;9.964;2022-09-13T15:55:26;6.90;;;1.80;;
44816;SDS011;30529;53.570;9.964;2022-09-13T15:57:53;6.67;;;1.33;;
44816;SDS011;30529;53.570;9.964;2022-09-13T16:00:20;8.80;;;1.47;;
44816;SDS011;30529;53.570;9.964;2022-09-13T16:02:49;3.97;;;1.50;;
44816;SDS011;30529;53.570;9.964;2022-09-13T16:05:15;7.83;;;1.93;;
44816;SDS011;30529;53.570;9.964;2022-09-13T16:07:42;7.30;;;1.43;;
44816;SDS011;30529;53.570;9.964;2022-09-13T16:10:13;8.10;;;2.00;;
44816;SDS011;30529;53.570;9.964;2022-09-13T16:12:42;7.77;;;1.33;;
44816;SDS011;30529;53.570;9.964;2022-09-13T16:15:09;4.00;;;1.20;;
44816;SDS011;30529;53.570;9.964;2022-09-13T16:17:36;6.50;;;1.70;;
44816;SDS011;30529;53.570;9.964;2022-09-13T16:20:03;6.00;;;1.30;;
44816;SDS011;30529;53.570;9.964;2022-09-13T16:22:31;4.33;;;1.23;;
44816;SDS011;30529;53.570;9.964;2022-09-13T16:24:58;3.33;;;1.10;;
44816;SDS011;30529;53.570;9.964;2022-09-13T16:27:24;6.50;;;1.30;;
44816;SDS011;30529;53.570;9.964;2022-09-13T16:29:51;3.87;;;0.93;;
44816;SDS011;30529;53.570;9.964;2022-09-13T16:32:18;7.07;;;1.70;;
44816;SDS011;30529;53.570;9.964;2022-09-13T16:34:44;6.90;;;1.63;;
44816;SDS011;30529;53.570;9.964;2022-09-13T16:37:12;3.90;;;1.40;;
44816;SDS011;30529;53.570;9.964;2022-09-13T16:39:40;4.83;;;1.20;;
44816;SDS011;30529;53.570;9.964;2022-09-13T16:42:06;8.03;;;1.60;;
44816;SDS011;30529;53.570;9.964;2022-09-13T16:44:32;5.57;;;1.10;;
44816;SDS011;30529;53.570;9.964;2022-09-13T16:46:58;5.57;;;1.20;;
44816;SDS011;30529;53.570;9.964;2022-09-13T16:49:24;4.93;;;1.50;;
44816;SDS011;30529;53.570;9.964;2022-09-13T16:51:51;5.33;;;1.40;;
44816;SDS011;30529;53.570;9.964;2022-09-13T16:54:17;3.90;;;1.27;;
44816;SDS011;30529;53.570;9.964;2022-09-13T16:56:43;7.13;;;1.30;;
44816;SDS011;30529;53.570;9.964;2022-09-13T16:59:09;9.63;;;1.40;;
44816;SDS011;30529;53.570;9.964;2022-09-13T17:01:35;4.13;;;1.40;;
44816;SDS011;30529;53.570;9.964;2022-09-13T17:04:01;3.63;;;1.17;;
44816;SDS011;30529;53.570;9.964;2022-09-13T17:06:28;4.30;;;1.27;;
44816;SDS011;30529;53.570;9.964;2022-09-13T17:09:05;7.10;;;1.50;;
44816;SDS011;30529;53.570;9.964;2022-09-13T17:11:33;6.37;;;1.50;;
44816;SDS011;30529;53.570;9.964;2022-09-13T17:14:01;5.40;;;1.50;;
44816;SDS011;30529;53.570;9.964;2022-09-13T17:16:37;4.80;;;1.37;;
44816;SDS011;30529;53.570;9.964;2022-09-13T17:19:09;4.30;;;0.97;;
44816;SDS011;30529;53.570;9.964;2022-09-13T17:21:38;3.50;;;1.50;;
44816;SDS011;30529;53.570;9.964;2022-09-13T17:24:05;6.07;;;1.40;;
44816;SDS011;30529;53.570;9.964;2022-09-13T17:26:31;5.53;;;1.63;;
44816;SDS011;30529;53.570;9.964;2022-09-13T17:28:57;4.83;;;1.50;;
44816;SDS011;30529;53.570;9.964;2022-09-13T17:31:23;5.37;;;1.50;;
44816;SDS011;30529;53.570;9.964;2022-09-13T17:33:49;5.63;;;1.60;;
44816;SDS011;30529;53.570;9.964;2022-09-13T17:36:17;6.53;;;1.67;;
44816;SDS011;30529;53.570;9.964;2022-09-13T17:38:44;8.93;;;1.63;;
44816;SDS011;30529;53.570;9.964;2022-09-13T17:41:14;5.10;;;1.30;;
44816;SDS011;30529;53.570;9.964;2022-09-13T17:43:42;6.57;;;1.70;;
44816;SDS011;30529;53.570;9.964;2022-09-13T17:46:10;6.80;;;1.60;;
44816;SDS011;30529;53.570;9.964;2022-09-13T17:48:37;4.20;;;1.43;;
44816;SDS011;30529;53.570;9.964;2022-09-13T17:51:05;4.60;;;1.57;;
44816;SDS011;30529;53.570;9.964;2022-09-13T17:53:37;3.83;;;1.17;;
44816;SDS011;30529;53.570;9.964;2022-09-13T17:56:08;5.17;;;1.43;;
44816;SDS011;30529;53.570;9.964;2022-09-13T17:58:34;7.60;;;1.80;;
44816;SDS011;30529;53.570;9.964;2022-09-13T18:03:31;4.53;;;1.60;;
44816;SDS011;30529;53.570;9.964;2022-09-13T18:06:00;3.87;;;1.77;;
44816;SDS011;30529;53.570;9.964;2022-09-13T18:08:28;9.13;;;2.17;;
44816;SDS011;30529;53.570;9.964;2022-09-13T18:11:00;10.53;;;1.40;;
44816;SDS011;30529;53.570;9.964;2022-09-13T18:13:28;9.67;;;1.90;;
44816;SDS011;30529;53.570;9.964;2022-09-13T18:15:58;9.77;;;1.83;;
44816;SDS011;30529;53.570;9.964;2022-09-13T18:18:25;5.37;;;1.53;;
44816;SDS011;30529;53.570;9.964;2022-09-13T18:20:51;6.47;;;1.60;;
44816;SDS011;30529;53.570;9.964;2022-09-13T18:23:17;6.83;;;2.03;;
44816;SDS011;30529;53.570;9.964;2022-09-13T18:25:43;5.47;;;1.77;;
44816;SDS011;30529;53.570;9.964;2022-09-13T18:28:20;7.87;;;1.37;;
44816;SDS011;30529;53.570;9.964;2022-09-13T18:30:53;5.63;;;2.10;;
44816;SDS011;30529;53.570;9.964;2022-09-13T18:33:20;10.03;;;1.87;;
44816;SDS011;30529;53.570;9.964;2022-09-13T18:36:00;5.67;;;1.47;;